Avon, Ohio
Current Conditions -  °F | °C
As of 3:51 PM on Thursday 20 Nov 2014 (Local Time) from KCLE Reporting Station
Light Snow Light Snow  
Wind Chill: -11°   Ceiling: 4300
Heat Index: -4°   Visibility: 9mi
Dew Point: -12°   Wind: 18mph
Humidity: 55%   Direction: 250°WSW
Pressure: 30.03"   Gusts: 32mph
Location:  41.47°N, 82.02°W
Report Text: KCLE 202051Z 25016G28KT 9SM -SN BKN043 OVC050 M04/M12 A3003 RMK AO2 PK WND 26031/2013 SNB43 SLP178 P0000 60000 T10391117 53009 $
Loading
Personal Weather Stations






























Interactive Weather Map New forecast layout! Learn more

10-Day Weather Forecast

Advertisements
Track Severe Weather on mobile